sensor_id;sensor_type;location;lat;lon;timestamp;pressure;altitude;pressure_sealevel;temperature;humidity
16806;BME280;8520;50.102;20.010;2023-05-16T00:01:34;97668.19;;;14.26;76.37
16806;BME280;8520;50.102;20.010;2023-05-16T00:04:03;97672.47;;;14.02;77.42
16806;BME280;8520;50.102;20.010;2023-05-16T00:06:33;97670.28;;;14.20;77.29
16806;BME280;8520;50.102;20.010;2023-05-16T00:09:02;97675.16;;;14.62;75.46
16806;BME280;8520;50.102;20.010;2023-05-16T00:15:33;97677.44;;;14.64;74.82
16806;BME280;8520;50.102;20.010;2023-05-16T00:18:01;97673.88;;;14.39;76.11
16806;BME280;8520;50.102;20.010;2023-05-16T00:20:29;97688.81;;;14.06;77.34
16806;BME280;8520;50.102;20.010;2023-05-16T00:22:59;97688.97;;;14.68;75.44
16806;BME280;8520;50.102;20.010;2023-05-16T00:25:27;97695.66;;;13.99;77.06
16806;BME280;8520;50.102;20.010;2023-05-16T00:27:55;97704.91;;;13.83;78.02
16806;BME280;8520;50.102;20.010;2023-05-16T00:30:24;97706.28;;;13.65;79.55
16806;BME280;8520;50.102;20.010;2023-05-16T00:32:53;97711.16;;;14.19;77.33
16806;BME280;8520;50.102;20.010;2023-05-16T00:35:22;97703.66;;;14.08;77.55
16806;BME280;8520;50.102;20.010;2023-05-16T00:37:50;97698.34;;;14.41;76.19
16806;BME280;8520;50.102;20.010;2023-05-16T00:40:21;97703.28;;;14.23;75.91
16806;BME280;8520;50.102;20.010;2023-05-16T00:42:50;97707.88;;;14.21;75.83
16806;BME280;8520;50.102;20.010;2023-05-16T00:45:18;97703.75;;;13.97;76.90
16806;BME280;8520;50.102;20.010;2023-05-16T00:47:46;97711.84;;;13.95;77.22
16806;BME280;8520;50.102;20.010;2023-05-16T00:50:15;97702.31;;;14.21;76.05
16806;BME280;8520;50.102;20.010;2023-05-16T00:52:44;97711.66;;;13.88;77.33
16806;BME280;8520;50.102;20.010;2023-05-16T00:55:13;97715.66;;;14.22;75.69
16806;BME280;8520;50.102;20.010;2023-05-16T00:57:42;97712.31;;;14.29;75.58
16806;BME280;8520;50.102;20.010;2023-05-16T01:00:11;97712.44;;;14.43;74.59
16806;BME280;8520;50.102;20.010;2023-05-16T01:02:41;97722.69;;;14.53;73.94
16806;BME280;8520;50.102;20.010;2023-05-16T01:05:10;97728.50;;;14.25;74.11
16806;BME280;8520;50.102;20.010;2023-05-16T01:07:38;97734.16;;;13.78;77.13
16806;BME280;8520;50.102;20.010;2023-05-16T01:10:07;97724.94;;;13.65;78.17
16806;BME280;8520;50.102;20.010;2023-05-16T01:12:38;97710.88;;;14.23;75.57
16806;BME280;8520;50.102;20.010;2023-05-16T01:15:12;97710.88;;;14.23;75.73
16806;BME280;8520;50.102;20.010;2023-05-16T01:17:49;97715.09;;;14.54;74.25
16806;BME280;8520;50.102;20.010;2023-05-16T01:20:29;97706.88;;;14.18;74.87
16806;BME280;8520;50.102;20.010;2023-05-16T01:23:18;97713.06;;;14.30;75.38
16806;BME280;8520;50.102;20.010;2023-05-16T01:25:56;97720.84;;;14.07;75.86
16806;BME280;8520;50.102;20.010;2023-05-16T01:28:26;97719.97;;;14.48;74.15
16806;BME280;8520;50.102;20.010;2023-05-16T01:30:55;97724.75;;;14.23;74.96
16806;BME280;8520;50.102;20.010;2023-05-16T01:33:23;97720.75;;;14.18;74.82
16806;BME280;8520;50.102;20.010;2023-05-16T01:35:56;97713.25;;;14.38;74.05
16806;BME280;8520;50.102;20.010;2023-05-16T01:38:34;97716.88;;;14.27;73.99
16806;BME280;8520;50.102;20.010;2023-05-16T01:41:09;97711.41;;;14.46;73.45
16806;BME280;8520;50.102;20.010;2023-05-16T01:43:43;97711.06;;;14.79;72.06
16806;BME280;8520;50.102;20.010;2023-05-16T01:46:14;97712.66;;;14.75;72.44
16806;BME280;8520;50.102;20.010;2023-05-16T01:48:48;97715.19;;;14.73;72.48
16806;BME280;8520;50.102;20.010;2023-05-16T01:51:21;97707.72;;;14.86;72.25
16806;BME280;8520;50.102;20.010;2023-05-16T01:53:51;97710.53;;;14.56;73.35
16806;BME280;8520;50.102;20.010;2023-05-16T01:56:20;97709.47;;;14.35;73.75
16806;BME280;8520;50.102;20.010;2023-05-16T01:58:51;97706.88;;;14.73;72.50
16806;BME280;8520;50.102;20.010;2023-05-16T02:01:20;97715.22;;;14.18;74.49
16806;BME280;8520;50.102;20.010;2023-05-16T02:03:48;97701.50;;;14.26;74.05
16806;BME280;8520;50.102;20.010;2023-05-16T02:06:16;97705.09;;;14.21;74.17
16806;BME280;8520;50.102;20.010;2023-05-16T02:08:44;97714.53;;;14.06;74.43
16806;BME280;8520;50.102;20.010;2023-05-16T02:11:16;97705.09;;;14.21;73.67
16806;BME280;8520;50.102;20.010;2023-05-16T02:13:44;97712.31;;;14.29;73.60
16806;BME280;8520;50.102;20.010;2023-05-16T02:16:14;97723.91;;;14.58;72.43
16806;BME280;8520;50.102;20.010;2023-05-16T02:18:42;97718.41;;;14.28;72.82
16806;BME280;8520;50.102;20.010;2023-05-16T02:21:11;97718.84;;;14.32;73.32
16806;BME280;8520;50.102;20.010;2023-05-16T02:23:39;97726.13;;;13.75;74.87
16806;BME280;8520;50.102;20.010;2023-05-16T02:26:07;97725.91;;;13.73;75.04
16806;BME280;8520;50.102;20.010;2023-05-16T02:28:35;97721.78;;;14.15;74.61
16806;BME280;8520;50.102;20.010;2023-05-16T02:31:04;97721.34;;;14.35;73.36
16806;BME280;8520;50.102;20.010;2023-05-16T02:33:33;97723.94;;;14.28;74.35
16806;BME280;8520;50.102;20.010;2023-05-16T02:36:01;97723.25;;;13.92;74.97
16806;BME280;8520;50.102;20.010;2023-05-16T02:38:29;97720.28;;;13.37;77.30
16806;BME280;8520;50.102;20.010;2023-05-16T02:40:57;97731.41;;;13.26;78.06
16806;BME280;8520;50.102;20.010;2023-05-16T02:43:25;97732.28;;;12.99;78.57
16806;BME280;8520;50.102;20.010;2023-05-16T02:45:53;97726.91;;;13.23;77.91
16806;BME280;8520;50.102;20.010;2023-05-16T02:48:22;97725.63;;;13.24;78.38
16806;BME280;8520;50.102;20.010;2023-05-16T02:50:51;97722.34;;;13.31;78.13
16806;BME280;8520;50.102;20.010;2023-05-16T02:53:19;97728.00;;;13.03;78.34
16806;BME280;8520;50.102;20.010;2023-05-16T02:55:47;97732.19;;;12.41;81.16
16806;BME280;8520;50.102;20.010;2023-05-16T02:58:15;97730.47;;;12.21;81.80
16806;BME280;8520;50.102;20.010;2023-05-16T03:00:43;97738.00;;;12.37;81.48
16806;BME280;8520;50.102;20.010;2023-05-16T03:03:11;97753.78;;;12.70;80.69
16806;BME280;8520;50.102;20.010;2023-05-16T03:05:39;97747.41;;;13.03;79.64
16806;BME280;8520;50.102;20.010;2023-05-16T03:08:09;97745.19;;;13.54;77.40
16806;BME280;8520;50.102;20.010;2023-05-16T03:10:37;97739.94;;;13.80;75.78
16806;BME280;8520;50.102;20.010;2023-05-16T03:13:05;97728.28;;;13.93;75.10
16806;BME280;8520;50.102;20.010;2023-05-16T03:15:33;97727.38;;;14.40;73.43
16806;BME280;8520;50.102;20.010;2023-05-16T03:18:01;97722.34;;;14.38;73.20
16806;BME280;8520;50.102;20.010;2023-05-16T03:20:30;97732.41;;;14.11;73.72
16806;BME280;8520;50.102;20.010;2023-05-16T03:22:58;97732.31;;;13.51;76.39
16806;BME280;8520;50.102;20.010;2023-05-16T03:25:27;97730.13;;;13.38;77.01
16806;BME280;8520;50.102;20.010;2023-05-16T03:27:55;97732.22;;;13.21;77.24
16806;BME280;8520;50.102;20.010;2023-05-16T03:30:23;97738.53;;;13.16;78.03
16806;BME280;8520;50.102;20.010;2023-05-16T03:32:52;97731.81;;;12.89;79.00
16806;BME280;8520;50.102;20.010;2023-05-16T03:35:20;97727.22;;;13.61;76.64
16806;BME280;8520;50.102;20.010;2023-05-16T03:37:48;97730.06;;;14.21;74.45
16806;BME280;8520;50.102;20.010;2023-05-16T03:40:17;97732.53;;;14.24;73.33
16806;BME280;8520;50.102;20.010;2023-05-16T03:42:46;97747.63;;;14.59;72.62
16806;BME280;8520;50.102;20.010;2023-05-16T03:45:15;97750.66;;;14.85;71.24
16806;BME280;8520;50.102;20.010;2023-05-16T03:47:43;97756.22;;;14.85;71.43
16806;BME280;8520;50.102;20.010;2023-05-16T03:50:11;97753.69;;;14.57;71.92
16806;BME280;8520;50.102;20.010;2023-05-16T03:52:39;97754.63;;;14.90;71.22
16806;BME280;8520;50.102;20.010;2023-05-16T03:55:07;97747.53;;;14.70;71.81
16806;BME280;8520;50.102;20.010;2023-05-16T03:57:36;97756.50;;;14.27;72.77
16806;BME280;8520;50.102;20.010;2023-05-16T04:00:07;97751.81;;;14.71;71.39
16806;BME280;8520;50.102;20.010;2023-05-16T04:02:39;97749.97;;;15.23;69.74
16806;BME280;8520;50.102;20.010;2023-05-16T04:05:09;97745.16;;;15.42;69.31
16806;BME280;8520;50.102;20.010;2023-05-16T04:07:38;97749.53;;;15.37;69.36
16806;BME280;8520;50.102;20.010;2023-05-16T04:10:07;97740.50;;;15.31;69.61
16806;BME280;8520;50.102;20.010;2023-05-16T04:12:36;97750.03;;;15.55;69.18
16806;BME280;8520;50.102;20.010;2023-05-16T04:15:06;97754.66;;;15.71;68.04
16806;BME280;8520;50.102;20.010;2023-05-16T04:17:34;97764.56;;;15.85;68.03
16806;BME280;8520;50.102;20.010;2023-05-16T04:20:03;97761.53;;;16.02;67.48
16806;BME280;8520;50.102;20.010;2023-05-16T04:22:32;97766.81;;;15.68;68.52
16806;BME280;8520;50.102;20.010;2023-05-16T04:25:00;97766.81;;;15.49;70.49
16806;BME280;8520;50.102;20.010;2023-05-16T04:27:28;97756.06;;;15.40;71.01
16806;BME280;8520;50.102;20.010;2023-05-16T04:29:57;97746.75;;;15.56;70.96
16806;BME280;8520;50.102;20.010;2023-05-16T04:32:27;97758.78;;;15.64;70.89
16806;BME280;8520;50.102;20.010;2023-05-16T04:34:55;97763.13;;;15.97;69.14
16806;BME280;8520;50.102;20.010;2023-05-16T04:37:24;97768.31;;;15.88;69.05
16806;BME280;8520;50.102;20.010;2023-05-16T04:39:52;97769.25;;;16.09;67.54
16806;BME280;8520;50.102;20.010;2023-05-16T04:42:21;97784.25;;;16.06;67.45
16806;BME280;8520;50.102;20.010;2023-05-16T04:44:54;97790.78;;;16.41;66.42
16806;BME280;8520;50.102;20.010;2023-05-16T04:47:36;97788.59;;;16.20;66.35
16806;BME280;8520;50.102;20.010;2023-05-16T04:50:06;97787.38;;;16.16;66.21
16806;BME280;8520;50.102;20.010;2023-05-16T04:52:35;97803.16;;;16.26;66.11
16806;BME280;8520;50.102;20.010;2023-05-16T04:55:04;97801.03;;;16.32;66.33
16806;BME280;8520;50.102;20.010;2023-05-16T04:57:32;97797.06;;;16.28;66.21
16806;BME280;8520;50.102;20.010;2023-05-16T05:00:01;97806.63;;;16.46;65.87
16806;BME280;8520;50.102;20.010;2023-05-16T05:02:32;97803.56;;;16.62;65.49
16806;BME280;8520;50.102;20.010;2023-05-16T05:05:07;97806.28;;;16.36;66.05
16806;BME280;8520;50.102;20.010;2023-05-16T05:07:39;97807.94;;;16.77;66.22
16806;BME280;8520;50.102;20.010;2023-05-16T05:10:09;97800.22;;;16.96;65.26
16806;BME280;8520;50.102;20.010;2023-05-16T05:12:37;97797.97;;;16.95;64.43
16806;BME280;8520;50.102;20.010;2023-05-16T05:15:06;97807.78;;;16.69;66.11
16806;BME280;8520;50.102;20.010;2023-05-16T05:17:34;97808.38;;;16.49;65.57
16806;BME280;8520;50.102;20.010;2023-05-16T05:20:07;97802.75;;;16.68;65.55
16806;BME280;8520;50.102;20.010;2023-05-16T05:22:36;97797.44;;;17.23;63.56
16806;BME280;8520;50.102;20.010;2023-05-16T05:25:05;97797.72;;;17.45;64.37
16806;BME280;8520;50.102;20.010;2023-05-16T05:27:33;97803.00;;;17.49;65.74
16806;BME280;8520;50.102;20.010;2023-05-16T05:30:01;97814.16;;;17.23;64.02
16806;BME280;8520;50.102;20.010;2023-05-16T05:32:29;97802.44;;;17.51;63.02
16806;BME280;8520;50.102;20.010;2023-05-16T05:34:57;97808.31;;;17.73;62.35
16806;BME280;8520;50.102;20.010;2023-05-16T05:37:27;97811.88;;;17.61;62.60
16806;BME280;8520;50.102;20.010;2023-05-16T05:39:55;97812.50;;;17.80;62.49
16806;BME280;8520;50.102;20.010;2023-05-16T05:42:23;97821.19;;;17.63;62.62
16806;BME280;8520;50.102;20.010;2023-05-16T05:44:52;97820.75;;;17.86;62.64
16806;BME280;8520;50.102;20.010;2023-05-16T05:47:20;97816.81;;;17.55;63.68
16806;BME280;8520;50.102;20.010;2023-05-16T05:49:49;97819.63;;;17.41;63.72
16806;BME280;8520;50.102;20.010;2023-05-16T05:52:17;97819.47;;;17.73;62.22
16806;BME280;8520;50.102;20.010;2023-05-16T05:54:47;97815.72;;;17.84;61.44
16806;BME280;8520;50.102;20.010;2023-05-16T05:57:15;97825.28;;;18.10;60.92
16806;BME280;8520;50.102;20.010;2023-05-16T05:59:44;97830.56;;;17.39;61.20
16806;BME280;8520;50.102;20.010;2023-05-16T06:02:12;97820.28;;;17.34;61.43
16806;BME280;8520;50.102;20.010;2023-05-16T06:04:40;97824.72;;;17.64;60.73
16806;BME280;8520;50.102;20.010;2023-05-16T06:07:08;97819.41;;;18.00;59.61
16806;BME280;8520;50.102;20.010;2023-05-16T06:09:37;97813.41;;;17.35;60.99
16806;BME280;8520;50.102;20.010;2023-05-16T06:12:07;97813.59;;;17.37;61.23
16806;BME280;8520;50.102;20.010;2023-05-16T06:14:35;97817.41;;;17.87;60.44
16806;BME280;8520;50.102;20.010;2023-05-16T06:17:03;97806.84;;;18.27;60.91
16806;BME280;8520;50.102;20.010;2023-05-16T06:19:31;97817.16;;;18.32;59.71
16806;BME280;8520;50.102;20.010;2023-05-16T06:22:00;97817.47;;;17.47;61.82
16806;BME280;8520;50.102;20.010;2023-05-16T06:24:28;97828.75;;;17.42;62.54
16806;BME280;8520;50.102;20.010;2023-05-16T06:26:56;97827.88;;;17.07;64.08
16806;BME280;8520;50.102;20.010;2023-05-16T06:29:25;97833.28;;;17.92;61.45
16806;BME280;8520;50.102;20.010;2023-05-16T06:31:53;97830.75;;;18.15;61.38
16806;BME280;8520;50.102;20.010;2023-05-16T06:34:21;97834.94;;;18.22;61.37
16806;BME280;8520;50.102;20.010;2023-05-16T06:36:53;97827.88;;;18.08;60.68
16806;BME280;8520;50.102;20.010;2023-05-16T06:39:22;97838.28;;;17.60;63.00
16806;BME280;8520;50.102;20.010;2023-05-16T06:41:50;97831.16;;;18.19;62.43
16806;BME280;8520;50.102;20.010;2023-05-16T06:44:22;97832.50;;;17.31;64.01
16806;BME280;8520;50.102;20.010;2023-05-16T06:46:52;97826.47;;;17.01;64.52
16806;BME280;8520;50.102;20.010;2023-05-16T06:49:20;97822.63;;;16.90;64.14
16806;BME280;8520;50.102;20.010;2023-05-16T06:51:48;97838.72;;;17.11;64.37
16806;BME280;8520;50.102;20.010;2023-05-16T06:54:16;97829.66;;;18.18;62.02
16806;BME280;8520;50.102;20.010;2023-05-16T06:56:44;97830.91;;;18.93;60.13
16806;BME280;8520;50.102;20.010;2023-05-16T06:59:12;97828.13;;;17.96;62.33
16806;BME280;8520;50.102;20.010;2023-05-16T07:01:40;97840.34;;;18.62;61.27
16806;BME280;8520;50.102;20.010;2023-05-16T07:04:10;97840.28;;;18.20;61.16
16806;BME280;8520;50.102;20.010;2023-05-16T07:06:38;97836.28;;;18.91;59.67
16806;BME280;8520;50.102;20.010;2023-05-16T07:09:07;97841.00;;;18.96;60.11
16806;BME280;8520;50.102;20.010;2023-05-16T07:11:35;97845.34;;;19.05;58.69
16806;BME280;8520;50.102;20.010;2023-05-16T07:14:03;97848.47;;;19.22;59.82
16806;BME280;8520;50.102;20.010;2023-05-16T07:16:31;97844.19;;;19.57;58.96
16806;BME280;8520;50.102;20.010;2023-05-16T07:18:59;97858.19;;;19.57;57.99
16806;BME280;8520;50.102;20.010;2023-05-16T07:21:29;97860.00;;;19.91;57.29
16806;BME280;8520;50.102;20.010;2023-05-16T07:23:57;97859.31;;;19.98;56.44
16806;BME280;8520;50.102;20.010;2023-05-16T07:26:25;97856.53;;;20.06;56.83
16806;BME280;8520;50.102;20.010;2023-05-16T07:28:53;97855.78;;;19.61;58.30
16806;BME280;8520;50.102;20.010;2023-05-16T07:31:21;97860.09;;;20.06;56.48
16806;BME280;8520;50.102;20.010;2023-05-16T07:33:49;97875.56;;;19.35;57.29
16806;BME280;8520;50.102;20.010;2023-05-16T07:36:18;97870.28;;;19.52;56.47
16806;BME280;8520;50.102;20.010;2023-05-16T07:38:48;97868.72;;;19.15;57.83
16806;BME280;8520;50.102;20.010;2023-05-16T07:41:16;97872.72;;;19.92;56.09
16806;BME280;8520;50.102;20.010;2023-05-16T07:43:44;97866.31;;;19.76;58.73
16806;BME280;8520;50.102;20.010;2023-05-16T07:46:12;97864.50;;;19.50;57.56
16806;BME280;8520;50.102;20.010;2023-05-16T07:48:41;97862.56;;;19.73;57.63
16806;BME280;8520;50.102;20.010;2023-05-16T07:51:09;97873.81;;;20.33;56.60
16806;BME280;8520;50.102;20.010;2023-05-16T07:53:37;97872.13;;;20.29;57.25
16806;BME280;8520;50.102;20.010;2023-05-16T07:56:07;97872.38;;;20.70;56.36
16806;BME280;8520;50.102;20.010;2023-05-16T07:58:36;97868.28;;;20.71;54.83
16806;BME280;8520;50.102;20.010;2023-05-16T08:01:05;97879.47;;;20.94;54.70
16806;BME280;8520;50.102;20.010;2023-05-16T08:03:34;97875.94;;;21.31;53.30
16806;BME280;8520;50.102;20.010;2023-05-16T08:06:03;97890.91;;;21.11;53.50
16806;BME280;8520;50.102;20.010;2023-05-16T08:08:31;97904.78;;;21.24;53.80
16806;BME280;8520;50.102;20.010;2023-05-16T08:10:59;97909.59;;;20.85;54.54
16806;BME280;8520;50.102;20.010;2023-05-16T08:13:29;97898.53;;;21.56;53.56
16806;BME280;8520;50.102;20.010;2023-05-16T08:15:57;97891.72;;;21.90;52.92
16806;BME280;8520;50.102;20.010;2023-05-16T08:18:25;97887.53;;;22.14;53.90
16806;BME280;8520;50.102;20.010;2023-05-16T08:20:53;97892.44;;;22.06;54.46
16806;BME280;8520;50.102;20.010;2023-05-16T08:23:21;97885.06;;;21.55;55.20
16806;BME280;8520;50.102;20.010;2023-05-16T08:25:49;97879.41;;;21.78;52.86
16806;BME280;8520;50.102;20.010;2023-05-16T08:28:20;97873.22;;;21.87;52.42
16806;BME280;8520;50.102;20.010;2023-05-16T08:30:50;97872.91;;;22.15;52.36
16806;BME280;8520;50.102;20.010;2023-05-16T08:33:18;97879.25;;;22.16;51.25
16806;BME280;8520;50.102;20.010;2023-05-16T08:35:46;97888.47;;;22.09;53.21
16806;BME280;8520;50.102;20.010;2023-05-16T08:38:15;97898.59;;;22.04;53.97
16806;BME280;8520;50.102;20.010;2023-05-16T08:40:43;97899.13;;;22.50;51.96
16806;BME280;8520;50.102;20.010;2023-05-16T08:43:12;97897.44;;;22.15;51.22
16806;BME280;8520;50.102;20.010;2023-05-16T08:45:40;97896.72;;;22.07;50.44
16806;BME280;8520;50.102;20.010;2023-05-16T08:48:10;97898.50;;;21.87;52.12
16806;BME280;8520;50.102;20.010;2023-05-16T08:50:38;97901.72;;;22.23;51.27
16806;BME280;8520;50.102;20.010;2023-05-16T08:53:08;97900.22;;;22.55;50.77
16806;BME280;8520;50.102;20.010;2023-05-16T08:55:40;97887.59;;;22.71;49.91
16806;BME280;8520;50.102;20.010;2023-05-16T08:58:08;97901.81;;;22.73;49.98
16806;BME280;8520;50.102;20.010;2023-05-16T09:00:38;97891.31;;;22.99;48.96
16806;BME280;8520;50.102;20.010;2023-05-16T09:03:06;97892.78;;;22.75;49.51
16806;BME280;8520;50.102;20.010;2023-05-16T09:05:37;97888.34;;;22.97;48.84
16806;BME280;8520;50.102;20.010;2023-05-16T09:08:05;97892.13;;;22.92;48.94
16806;BME280;8520;50.102;20.010;2023-05-16T09:10:33;97891.00;;;23.37;48.30
16806;BME280;8520;50.102;20.010;2023-05-16T09:13:01;97896.66;;;23.72;47.39
16806;BME280;8520;50.102;20.010;2023-05-16T09:15:30;97887.84;;;23.85;47.67
16806;BME280;8520;50.102;20.010;2023-05-16T09:17:59;97897.41;;;23.30;46.56
16806;BME280;8520;50.102;20.010;2023-05-16T09:20:28;97892.09;;;23.17;48.19
16806;BME280;8520;50.102;20.010;2023-05-16T09:22:59;97895.09;;;23.61;47.26
16806;BME280;8520;50.102;20.010;2023-05-16T09:25:29;97905.69;;;23.70;47.13
16806;BME280;8520;50.102;20.010;2023-05-16T09:27:59;97901.09;;;24.27;46.58
16806;BME280;8520;50.102;20.010;2023-05-16T09:30:30;97904.25;;;24.13;46.52
16806;BME280;8520;50.102;20.010;2023-05-16T09:33:00;97905.56;;;24.30;46.48
16806;BME280;8520;50.102;20.010;2023-05-16T09:35:28;97900.22;;;23.89;45.87
16806;BME280;8520;50.102;20.010;2023-05-16T09:38:14;97894.97;;;24.47;45.54
16806;BME280;8520;50.102;20.010;2023-05-16T09:40:43;97897.75;;;24.65;44.66
16806;BME280;8520;50.102;20.010;2023-05-16T09:43:14;97891.59;;;24.76;44.13
16806;BME280;8520;50.102;20.010;2023-05-16T09:45:45;97889.97;;;24.83;44.35
16806;BME280;8520;50.102;20.010;2023-05-16T09:48:15;97893.19;;;25.06;43.26
16806;BME280;8520;50.102;20.010;2023-05-16T09:50:49;97899.63;;;25.26;43.30
16806;BME280;8520;50.102;20.010;2023-05-16T09:53:25;97897.31;;;25.05;43.61
16806;BME280;8520;50.102;20.010;2023-05-16T09:56:04;97880.88;;;25.21;44.37
16806;BME280;8520;50.102;20.010;2023-05-16T09:58:35;97888.69;;;25.49;44.00
16806;BME280;8520;50.102;20.010;2023-05-16T10:01:04;97883.97;;;25.61;44.66
16806;BME280;8520;50.102;20.010;2023-05-16T10:03:34;97881.09;;;25.42;45.23
16806;BME280;8520;50.102;20.010;2023-05-16T10:06:03;97875.47;;;25.05;46.59
16806;BME280;8520;50.102;20.010;2023-05-16T10:08:35;97870.50;;;25.33;46.03
16806;BME280;8520;50.102;20.010;2023-05-16T10:11:04;97876.06;;;24.13;46.73
16806;BME280;8520;50.102;20.010;2023-05-16T10:13:34;97876.13;;;24.50;46.85
16806;BME280;8520;50.102;20.010;2023-05-16T10:16:06;97862.47;;;25.29;46.10
16806;BME280;8520;50.102;20.010;2023-05-16T10:18:37;97857.94;;;25.44;45.69
16806;BME280;8520;50.102;20.010;2023-05-16T10:21:08;97867.56;;;25.41;45.35
16806;BME280;8520;50.102;20.010;2023-05-16T10:23:41;97864.31;;;25.83;44.94
16806;BME280;8520;50.102;20.010;2023-05-16T10:26:10;97856.13;;;26.16;44.91
16806;BME280;8520;50.102;20.010;2023-05-16T10:28:41;97857.25;;;26.32;43.53
16806;BME280;8520;50.102;20.010;2023-05-16T10:31:09;97858.28;;;26.46;43.69
16806;BME280;8520;50.102;20.010;2023-05-16T10:33:38;97860.94;;;26.54;43.22
16806;BME280;8520;50.102;20.010;2023-05-16T10:36:07;97860.75;;;25.44;44.60
16806;BME280;8520;50.102;20.010;2023-05-16T10:38:37;97857.34;;;25.64;45.21
16806;BME280;8520;50.102;20.010;2023-05-16T10:41:07;97856.72;;;26.14;43.13
16806;BME280;8520;50.102;20.010;2023-05-16T10:43:36;97860.38;;;26.46;43.21
16806;BME280;8520;50.102;20.010;2023-05-16T10:46:06;97853.28;;;26.06;44.01
16806;BME280;8520;50.102;20.010;2023-05-16T10:48:36;97841.66;;;26.21;43.22
16806;BME280;8520;50.102;20.010;2023-05-16T10:51:32;97852.56;;;26.66;42.09
16806;BME280;8520;50.102;20.010;2023-05-16T10:54:04;97836.25;;;26.86;41.97
16806;BME280;8520;50.102;20.010;2023-05-16T10:56:35;97855.03;;;27.12;41.64
16806;BME280;8520;50.102;20.010;2023-05-16T10:59:03;97858.91;;;27.07;41.08
16806;BME280;8520;50.102;20.010;2023-05-16T11:01:32;97858.31;;;26.77;42.32
16806;BME280;8520;50.102;20.010;2023-05-16T11:04:02;97857.72;;;27.10;42.31
16806;BME280;8520;50.102;20.010;2023-05-16T11:06:32;97847.63;;;26.76;42.47
16806;BME280;8520;50.102;20.010;2023-05-16T11:09:04;97847.59;;;27.07;42.90
16806;BME280;8520;50.102;20.010;2023-05-16T11:11:44;97845.38;;;27.05;42.82
16806;BME280;8520;50.102;20.010;2023-05-16T11:14:19;97850.28;;;27.36;42.98
16806;BME280;8520;50.102;20.010;2023-05-16T11:16:50;97853.31;;;27.71;42.33
16806;BME280;8520;50.102;20.010;2023-05-16T11:19:29;97853.50;;;27.42;42.84
16806;BME280;8520;50.102;20.010;2023-05-16T11:22:04;97858.28;;;27.18;42.75
16806;BME280;8520;50.102;20.010;2023-05-16T11:24:34;97855.59;;;27.63;42.32
16806;BME280;8520;50.102;20.010;2023-05-16T11:27:04;97865.06;;;27.25;42.80
16806;BME280;8520;50.102;20.010;2023-05-16T11:29:34;97857.97;;;26.93;42.65
16806;BME280;8520;50.102;20.010;2023-05-16T11:32:04;97859.63;;;27.17;41.70
16806;BME280;8520;50.102;20.010;2023-05-16T11:34:35;97860.66;;;27.43;41.58
16806;BME280;8520;50.102;20.010;2023-05-16T11:37:04;97850.88;;;27.34;41.57
16806;BME280;8520;50.102;20.010;2023-05-16T11:39:33;97859.72;;;27.50;41.86
16806;BME280;8520;50.102;20.010;2023-05-16T11:42:01;97850.41;;;27.38;42.16
16806;BME280;8520;50.102;20.010;2023-05-16T11:44:30;97847.81;;;27.21;43.62
16806;BME280;8520;50.102;20.010;2023-05-16T11:46:59;97859.47;;;27.15;43.85
16806;BME280;8520;50.102;20.010;2023-05-16T11:49:28;97854.75;;;27.08;43.02
16806;BME280;8520;50.102;20.010;2023-05-16T11:51:56;97850.06;;;26.91;43.72
16806;BME280;8520;50.102;20.010;2023-05-16T11:54:25;97857.38;;;27.16;43.62
16806;BME280;8520;50.102;20.010;2023-05-16T11:56:53;97868.00;;;26.84;43.87
16806;BME280;8520;50.102;20.010;2023-05-16T11:59:21;97874.13;;;26.81;44.77
16806;BME280;8520;50.102;20.010;2023-05-16T12:01:51;97867.31;;;26.64;44.22
16806;BME280;8520;50.102;20.010;2023-05-16T12:04:19;97873.63;;;26.43;44.79
16806;BME280;8520;50.102;20.010;2023-05-16T12:07:00;97871.56;;;26.25;45.25
16806;BME280;8520;50.102;20.010;2023-05-16T12:09:29;97882.13;;;26.24;45.33
16806;BME280;8520;50.102;20.010;2023-05-16T12:11:57;97871.69;;;26.46;44.96
16806;BME280;8520;50.102;20.010;2023-05-16T12:14:25;97874.94;;;26.42;45.56
16806;BME280;8520;50.102;20.010;2023-05-16T12:16:55;97876.06;;;25.99;44.79
16806;BME280;8520;50.102;20.010;2023-05-16T12:19:23;97874.41;;;26.15;45.14
16806;BME280;8520;50.102;20.010;2023-05-16T12:21:52;97873.81;;;25.87;45.11
16806;BME280;8520;50.102;20.010;2023-05-16T12:24:21;97879.50;;;26.07;45.05
16806;BME280;8520;50.102;20.010;2023-05-16T12:26:56;97871.44;;;25.93;45.53
16806;BME280;8520;50.102;20.010;2023-05-16T12:29:24;97876.22;;;25.81;45.31
16806;BME280;8520;50.102;20.010;2023-05-16T12:31:52;97880.53;;;25.82;44.40
16806;BME280;8520;50.102;20.010;2023-05-16T12:34:22;97880.97;;;25.79;44.92
16806;BME280;8520;50.102;20.010;2023-05-16T12:36:51;97872.50;;;25.59;45.10
16806;BME280;8520;50.102;20.010;2023-05-16T12:39:20;97873.69;;;25.47;45.24
16806;BME280;8520;50.102;20.010;2023-05-16T12:41:49;97868.72;;;25.28;45.64
16806;BME280;8520;50.102;20.010;2023-05-16T12:44:18;97870.25;;;25.39;45.03
16806;BME280;8520;50.102;20.010;2023-05-16T12:46:49;97883.38;;;25.07;45.77
16806;BME280;8520;50.102;20.010;2023-05-16T12:49:19;97871.91;;;25.05;45.12
16806;BME280;8520;50.102;20.010;2023-05-16T12:51:50;97866.44;;;25.07;45.95
16806;BME280;8520;50.102;20.010;2023-05-16T12:54:19;97871.91;;;24.68;45.62
16806;BME280;8520;50.102;20.010;2023-05-16T12:56:48;97867.31;;;24.63;46.05
16806;BME280;8520;50.102;20.010;2023-05-16T12:59:17;97862.69;;;24.31;47.31
16806;BME280;8520;50.102;20.010;2023-05-16T13:01:46;97864.53;;;24.46;47.12
16806;BME280;8520;50.102;20.010;2023-05-16T13:04:14;97859.50;;;24.71;46.54
16806;BME280;8520;50.102;20.010;2023-05-16T13:06:46;97862.94;;;24.52;46.79
16806;BME280;8520;50.102;20.010;2023-05-16T13:09:26;97860.31;;;24.64;46.74
16806;BME280;8520;50.102;20.010;2023-05-16T13:11:59;97860.84;;;24.70;46.33
16806;BME280;8520;50.102;20.010;2023-05-16T13:14:27;97862.56;;;24.39;46.28
16806;BME280;8520;50.102;20.010;2023-05-16T13:16:55;97866.72;;;24.38;46.68